Time;durP1;ratioP1;P1;durP2;ratioP2;P2;SDS_P1;SDS_P2;PMS_P1;PMS_P2;Temp;Humidity;BMP_temperature;BMP_pressure;BME280_temperature;BME280_humidity;BME280_pressure;Samples;Min_cycle;Max_cycle;Signal;HPM_P1;HPM_P2
2023/05/10 00:00:43;;;;;;;48.05;16.42;;;;;;;;;;4993747;28;20026;-91
2023/05/10 00:03:08;;;;;;;50.13;16.95;;;;;;;;;;4994345;28;20022;-92
2023/05/10 00:05:33;;;;;;;49.03;17.55;;;;;;;;;;4994834;28;20026;-90
2023/05/10 00:07:59;;;;;;;55.67;20.67;;;;;;;;;;4993690;28;20077;-90
2023/05/10 00:10:24;;;;;;;58.22;20.15;;;;;;;;;;4994410;28;20034;-91
2023/05/10 00:12:49;;;;;;;52.35;18.85;;;;;;;;;;4994418;28;20018;-91
2023/05/10 00:15:15;;;;;;;54.10;20.03;;;;;;;;;;4993137;28;20034;-91
2023/05/10 00:17:40;;;;;;;54.88;20.50;;;;;;;;;;4994214;28;20264;-92
2023/05/10 00:20:06;;;;;;;47.53;19.83;;;;;;;;;;4976796;28;20509;-90
2023/05/10 00:22:31;;;;;;;53.65;22.70;;;;;;;;;;4993292;28;20029;-92
2023/05/10 00:24:57;;;;;;;57.63;21.83;;;;;;;;;;4994124;28;20022;-91
2023/05/10 00:27:22;;;;;;;58.28;23.08;;;;;;;;;;4994293;28;20015;-91
2023/05/10 00:29:47;;;;;;;56.72;23.55;;;;;;;;;;4993148;28;21024;-91
2023/05/10 00:32:13;;;;;;;64.57;24.70;;;;;;;;;;4991885;28;20053;-91
2023/05/10 00:34:39;;;;;;;62.78;23.73;;;;;;;;;;4992017;28;20638;-91
2023/05/10 00:37:04;;;;;;;65.90;25.20;;;;;;;;;;4991776;28;20022;-91
2023/05/10 00:39:29;;;;;;;71.50;26.80;;;;;;;;;;4994080;28;20089;-90
2023/05/10 00:41:54;;;;;;;47.07;23.70;;;;;;;;;;4993591;28;20161;-90
2023/05/10 00:44:20;;;;;;;54.57;22.33;;;;;;;;;;4993317;28;20355;-91
2023/05/10 00:46:46;;;;;;;55.35;23.30;;;;;;;;;;4993415;28;20371;-90
2023/05/10 00:49:11;;;;;;;55.15;23.90;;;;;;;;;;4993733;28;20161;-91
2023/05/10 00:51:37;;;;;;;55.03;23.38;;;;;;;;;;4974560;28;20548;-91
2023/05/10 00:54:02;;;;;;;58.53;26.30;;;;;;;;;;4993830;28;20018;-91
2023/05/10 00:56:29;;;;;;;60.60;23.92;;;;;;;;;;4993545;28;20388;-91
2023/05/10 00:58:54;;;;;;;65.57;24.70;;;;;;;;;;4993104;28;20093;-92
2023/05/10 01:01:20;;;;;;;51.65;24.00;;;;;;;;;;4975514;28;20124;-90
2023/05/10 01:03:46;;;;;;;60.72;26.55;;;;;;;;;;4993604;28;20054;-91
2023/05/10 01:06:12;;;;;;;50.22;23.63;;;;;;;;;;4989755;28;20391;-90
2023/05/10 01:08:37;;;;;;;55.15;26.13;;;;;;;;;;4972293;28;20022;-91
2023/05/10 01:11:02;;;;;;;51.72;24.73;;;;;;;;;;4993267;28;20539;-90
2023/05/10 01:13:27;;;;;;;59.60;24.65;;;;;;;;;;4976129;28;20018;-90
2023/05/10 01:15:53;;;;;;;43.87;24.73;;;;;;;;;;4993159;28;20076;-91
2023/05/10 01:18:20;;;;;;;58.78;26.80;;;;;;;;;;4993271;28;20025;-90
2023/05/10 01:20:48;;;;;;;62.83;28.67;;;;;;;;;;4992624;28;20104;-90
2023/05/10 01:23:30;;;;;;;54.45;27.27;;;;;;;;;;4993082;28;20080;-91
2023/05/10 01:26:15;;;;;;;64.00;28.10;;;;;;;;;;4993382;28;20019;-90
2023/05/10 01:28:40;;;;;;;51.85;26.67;;;;;;;;;;4993390;28;20045;-92
2023/05/10 01:31:15;;;;;;;48.40;26.97;;;;;;;;;;4975768;28;20141;-91
2023/05/10 01:33:52;;;;;;;74.25;30.60;;;;;;;;;;4993286;28;20259;-91
2023/05/10 01:36:36;;;;;;;58.10;27.90;;;;;;;;;;4992209;28;20022;-91
2023/05/10 01:39:09;;;;;;;64.95;28.73;;;;;;;;;;4975426;28;20026;-90
2023/05/10 01:41:47;;;;;;;49.42;29.17;;;;;;;;;;4993092;28;20018;-92
2023/05/10 01:44:18;;;;;;;66.22;29.13;;;;;;;;;;4975994;28;20022;-92
2023/05/10 01:46:48;;;;;;;58.75;28.38;;;;;;;;;;4994107;28;20018;-95
2023/05/10 01:49:27;;;;;;;64.18;30.63;;;;;;;;;;4976670;28;20038;-93
2023/05/10 01:51:54;;;;;;;63.90;28.95;;;;;;;;;;4980301;28;20034;-95
2023/05/10 01:54:21;;;;;;;59.95;30.00;;;;;;;;;;4980319;28;20018;-96
2023/05/10 01:56:49;;;;;;;68.40;29.30;;;;;;;;;;4990540;28;20038;-95
2023/05/10 01:59:16;;;;;;;56.50;29.60;;;;;;;;;;4978977;28;20037;-96
2023/05/10 02:01:42;;;;;;;58.33;30.58;;;;;;;;;;4982445;28;20026;-95
2023/05/10 02:04:09;;;;;;;65.15;30.42;;;;;;;;;;4979188;28;20022;-96
2023/05/10 02:06:35;;;;;;;61.72;28.90;;;;;;;;;;4977004;28;20026;-93
2023/05/10 02:09:01;;;;;;;54.22;29.40;;;;;;;;;;4973618;28;20026;-93
2023/05/10 02:11:27;;;;;;;62.90;29.38;;;;;;;;;;4974572;28;20073;-94
2023/05/10 02:13:53;;;;;;;63.45;29.65;;;;;;;;;;5002271;28;20045;-93
2023/05/10 02:16:22;;;;;;;63.63;28.63;;;;;;;;;;4995099;28;20026;-94
2023/05/10 02:18:48;;;;;;;56.53;28.25;;;;;;;;;;4986131;28;20023;-93
2023/05/10 02:21:15;;;;;;;60.60;26.13;;;;;;;;;;4976230;28;20563;-94
2023/05/10 02:23:40;;;;;;;66.35;28.70;;;;;;;;;;4975235;28;20061;-95
2023/05/10 02:26:06;;;;;;;50.30;25.65;;;;;;;;;;4975783;28;20026;-94
2023/05/10 02:28:32;;;;;;;47.70;26.25;;;;;;;;;;4975386;28;20097;-93
2023/05/10 02:30:57;;;;;;;47.60;24.45;;;;;;;;;;4975325;28;20042;-94
2023/05/10 02:33:23;;;;;;;57.35;25.33;;;;;;;;;;4993427;28;20015;-94
2023/05/10 02:35:48;;;;;;;52.80;23.77;;;;;;;;;;4975416;28;20472;-93
2023/05/10 02:38:14;;;;;;;53.25;24.17;;;;;;;;;;4990559;28;20026;-94
2023/05/10 02:40:41;;;;;;;54.35;23.63;;;;;;;;;;4975396;28;20030;-94
2023/05/10 02:43:09;;;;;;;43.85;21.88;;;;;;;;;;4976000;28;20126;-94
2023/05/10 02:45:35;;;;;;;46.92;22.00;;;;;;;;;;4975756;28;20019;-94
2023/05/10 02:48:01;;;;;;;50.33;21.40;;;;;;;;;;4975610;28;20068;-93
2023/05/10 02:50:27;;;;;;;44.42;20.00;;;;;;;;;;4975609;28;20022;-93
2023/05/10 02:52:55;;;;;;;49.40;20.73;;;;;;;;;;4974753;28;20026;-92
2023/05/10 02:55:22;;;;;;;40.05;19.33;;;;;;;;;;4992619;28;20469;-93
2023/05/10 02:57:57;;;;;;;41.08;19.23;;;;;;;;;;4992915;28;20453;-93
2023/05/10 03:00:24;;;;;;;42.25;17.20;;;;;;;;;;4975610;28;20105;-94
2023/05/10 03:02:49;;;;;;;40.30;16.92;;;;;;;;;;4975496;28;20023;-93
2023/05/10 03:05:14;;;;;;;34.70;16.87;;;;;;;;;;4975196;28;20076;-94
2023/05/10 03:07:39;;;;;;;40.22;16.95;;;;;;;;;;4974415;28;20276;-94
2023/05/10 03:10:05;;;;;;;43.63;17.20;;;;;;;;;;4975167;28;20029;-93
2023/05/10 03:12:30;;;;;;;40.00;17.23;;;;;;;;;;4992515;28;20296;-93
2023/05/10 03:15:00;;;;;;;43.50;16.80;;;;;;;;;;4968748;28;20056;-94
2023/05/10 03:17:29;;;;;;;43.60;17.17;;;;;;;;;;4955999;28;20362;-94
2023/05/10 03:19:56;;;;;;;37.45;16.65;;;;;;;;;;4956179;28;20085;-93
2023/05/10 03:22:25;;;;;;;59.92;19.05;;;;;;;;;;4961037;28;20026;-93
2023/05/10 03:24:51;;;;;;;40.15;15.85;;;;;;;;;;4978493;28;20056;-92
2023/05/10 03:27:16;;;;;;;51.47;17.48;;;;;;;;;;4978201;28;20023;-92
2023/05/10 03:29:43;;;;;;;35.80;14.40;;;;;;;;;;4995664;28;20022;-93
2023/05/10 03:32:08;;;;;;;47.50;17.20;;;;;;;;;;4978174;28;20065;-92
2023/05/10 03:34:33;;;;;;;36.42;15.60;;;;;;;;;;4978184;28;20054;-91
2023/05/10 03:36:58;;;;;;;42.13;14.82;;;;;;;;;;4994682;28;20026;-92
2023/05/10 03:39:24;;;;;;;36.15;14.77;;;;;;;;;;4977805;28;20025;-93
2023/05/10 03:41:49;;;;;;;35.25;13.32;;;;;;;;;;4977817;28;20029;-93
2023/05/10 03:44:15;;;;;;;52.08;17.20;;;;;;;;;;4977760;28;20418;-92
2023/05/10 03:46:40;;;;;;;35.83;15.03;;;;;;;;;;4977912;28;20022;-91
2023/05/10 03:49:05;;;;;;;41.23;15.33;;;;;;;;;;4995060;28;20339;-92
2023/05/10 03:51:31;;;;;;;38.80;15.00;;;;;;;;;;4994400;28;20284;-92
2023/05/10 03:53:56;;;;;;;39.85;14.88;;;;;;;;;;4994935;28;20018;-93
2023/05/10 03:56:22;;;;;;;33.80;13.20;;;;;;;;;;4977612;28;20035;-92
2023/05/10 03:58:47;;;;;;;48.67;15.70;;;;;;;;;;4977380;28;20034;-93
2023/05/10 04:01:12;;;;;;;36.08;14.55;;;;;;;;;;4994963;28;20030;-93
2023/05/10 04:03:38;;;;;;;38.72;13.70;;;;;;;;;;4977505;28;20019;-92
2023/05/10 04:06:03;;;;;;;44.83;15.38;;;;;;;;;;4994531;28;20031;-92
2023/05/10 04:08:29;;;;;;;37.30;14.05;;;;;;;;;;4992358;28;20045;-92
2023/05/10 04:10:54;;;;;;;41.08;13.70;;;;;;;;;;4994093;28;20030;-92
2023/05/10 04:13:19;;;;;;;45.40;15.52;;;;;;;;;;4977098;28;20037;-92
2023/05/10 04:15:44;;;;;;;47.75;14.02;;;;;;;;;;4994404;28;20026;-92
2023/05/10 04:18:10;;;;;;;57.13;14.45;;;;;;;;;;4976842;28;20030;-92
2023/05/10 04:20:35;;;;;;;47.67;14.63;;;;;;;;;;4994753;28;20026;-92
2023/05/10 04:23:01;;;;;;;41.70;13.73;;;;;;;;;;4992219;28;20034;-92
2023/05/10 04:25:26;;;;;;;46.05;13.77;;;;;;;;;;4993426;28;20101;-92
2023/05/10 04:27:51;;;;;;;41.55;15.63;;;;;;;;;;4994604;28;20025;-92
2023/05/10 04:30:16;;;;;;;44.63;15.32;;;;;;;;;;4993222;28;20032;-92
2023/05/10 04:32:42;;;;;;;35.80;12.02;;;;;;;;;;4994371;28;20022;-91
2023/05/10 04:35:07;;;;;;;50.43;13.93;;;;;;;;;;4992682;28;20018;-92
2023/05/10 04:37:32;;;;;;;47.40;12.80;;;;;;;;;;4993702;28;20264;-91
2023/05/10 04:39:59;;;;;;;37.00;12.33;;;;;;;;;;4976159;28;20014;-93
2023/05/10 04:42:25;;;;;;;41.45;12.95;;;;;;;;;;4992373;28;20282;-92
2023/05/10 04:44:51;;;;;;;52.33;14.52;;;;;;;;;;4976146;28;20097;-92
2023/05/10 04:47:17;;;;;;;37.33;12.35;;;;;;;;;;4994241;28;20420;-92
2023/05/10 04:49:42;;;;;;;44.30;13.23;;;;;;;;;;4993482;28;20018;-93
2023/05/10 04:52:07;;;;;;;33.23;12.63;;;;;;;;;;4976641;28;20034;-92
2023/05/10 04:54:32;;;;;;;45.67;14.90;;;;;;;;;;4992320;28;20272;-92
2023/05/10 04:56:57;;;;;;;35.50;13.17;;;;;;;;;;4975899;28;20036;-92
2023/05/10 04:59:23;;;;;;;50.35;14.18;;;;;;;;;;4976487;28;20390;-92
2023/05/10 05:01:48;;;;;;;44.63;15.10;;;;;;;;;;4993892;28;20029;-92
2023/05/10 05:04:14;;;;;;;44.37;15.53;;;;;;;;;;4993569;28;20264;-92
2023/05/10 05:06:39;;;;;;;51.17;15.93;;;;;;;;;;4976440;28;20370;-92
2023/05/10 05:09:04;;;;;;;50.90;17.30;;;;;;;;;;4991179;28;20042;-91
2023/05/10 05:11:30;;;;;;;42.05;15.27;;;;;;;;;;4993214;28;20422;-93
2023/05/10 05:13:55;;;;;;;45.53;15.43;;;;;;;;;;4992790;28;20030;-91
2023/05/10 05:16:21;;;;;;;41.15;14.10;;;;;;;;;;4975929;28;20264;-91
2023/05/10 05:18:46;;;;;;;42.20;15.38;;;;;;;;;;4975337;28;20493;-91
2023/05/10 05:21:18;;;;;;;35.77;15.47;;;;;;;;;;4976369;28;20018;-91
2023/05/10 05:23:43;;;;;;;41.05;16.20;;;;;;;;;;4992224;28;20621;-92
2023/05/10 05:26:09;;;;;;;44.65;16.48;;;;;;;;;;4993433;28;20048;-91
2023/05/10 05:28:37;;;;;;;48.92;17.40;;;;;;;;;;4975509;28;20023;-92
2023/05/10 05:31:02;;;;;;;40.03;16.25;;;;;;;;;;4975741;28;20535;-92
2023/05/10 05:33:27;;;;;;;35.75;16.13;;;;;;;;;;4970272;28;20022;-92
2023/05/10 05:35:52;;;;;;;51.70;16.07;;;;;;;;;;4993229;28;20504;-92
2023/05/10 05:38:18;;;;;;;47.22;15.55;;;;;;;;;;4992241;28;20271;-90
2023/05/10 05:40:43;;;;;;;50.17;16.90;;;;;;;;;;4975520;28;20567;-94
2023/05/10 05:43:08;;;;;;;41.53;15.45;;;;;;;;;;4975520;28;20266;-93
2023/05/10 05:45:33;;;;;;;51.13;17.05;;;;;;;;;;4975377;28;20055;-93
2023/05/10 05:47:59;;;;;;;50.50;18.10;;;;;;;;;;4992410;28;20101;-93
2023/05/10 05:50:24;;;;;;;41.77;17.30;;;;;;;;;;4975545;28;20468;-93
2023/05/10 05:52:49;;;;;;;46.30;17.00;;;;;;;;;;4974960;28;20280;-91
2023/05/10 05:55:14;;;;;;;36.75;16.45;;;;;;;;;;4974715;28;20271;-93
2023/05/10 05:57:39;;;;;;;43.97;18.23;;;;;;;;;;4975470;28;20358;-93
2023/05/10 06:00:05;;;;;;;52.60;17.25;;;;;;;;;;4992493;28;20069;-93
2023/05/10 06:02:30;;;;;;;42.67;16.85;;;;;;;;;;4975408;28;20037;-93
2023/05/10 06:04:55;;;;;;;38.07;14.80;;;;;;;;;;4973778;28;20034;-91
2023/05/10 06:07:21;;;;;;;36.63;16.23;;;;;;;;;;4992675;28;20280;-91
2023/05/10 06:09:46;;;;;;;46.95;15.13;;;;;;;;;;4992565;28;20026;-90
2023/05/10 06:12:11;;;;;;;37.05;14.13;;;;;;;;;;4991161;28;20042;-91
2023/05/10 06:14:37;;;;;;;36.13;13.60;;;;;;;;;;4992100;28;20033;-91
2023/05/10 06:17:04;;;;;;;36.43;11.13;;;;;;;;;;4974534;28;20492;-90
2023/05/10 06:19:30;;;;;;;31.83;10.13;;;;;;;;;;4974072;28;20256;-91
2023/05/10 06:21:55;;;;;;;33.33;9.43;;;;;;;;;;4991131;28;20014;-91
2023/05/10 06:24:21;;;;;;;32.22;9.68;;;;;;;;;;4974787;28;20030;-91
2023/05/10 06:26:46;;;;;;;32.67;8.45;;;;;;;;;;4992811;28;20018;-92
2023/05/10 06:29:12;;;;;;;27.65;8.13;;;;;;;;;;4974507;28;20109;-92
2023/05/10 06:31:37;;;;;;;30.73;8.88;;;;;;;;;;4975405;28;20543;-91
2023/05/10 06:34:02;;;;;;;25.57;6.57;;;;;;;;;;4975036;28;20080;-91
2023/05/10 06:36:27;;;;;;;33.33;8.30;;;;;;;;;;4991437;28;20279;-92
2023/05/10 06:38:53;;;;;;;31.27;6.13;;;;;;;;;;4974955;28;20410;-92
2023/05/10 06:41:18;;;;;;;35.50;6.45;;;;;;;;;;4974629;28;20303;-91
2023/05/10 06:43:43;;;;;;;23.38;5.50;;;;;;;;;;4975481;28;20092;-92
2023/05/10 06:46:09;;;;;;;22.58;4.72;;;;;;;;;;4992111;28;20026;-92
2023/05/10 06:48:34;;;;;;;21.83;4.90;;;;;;;;;;4974215;28;20022;-93
2023/05/10 06:50:59;;;;;;;22.35;4.75;;;;;;;;;;4973973;28;20077;-91
2023/05/10 06:53:25;;;;;;;32.28;6.65;;;;;;;;;;4975093;28;20049;-92
2023/05/10 06:55:50;;;;;;;31.60;5.47;;;;;;;;;;4992498;28;20368;-92
2023/05/10 06:58:16;;;;;;;29.88;5.50;;;;;;;;;;4977665;28;20455;-92
2023/05/10 07:00:43;;;;;;;29.25;6.80;;;;;;;;;;4979088;28;20015;-93
2023/05/10 07:03:08;;;;;;;30.13;7.57;;;;;;;;;;4979184;28;20026;-92
2023/05/10 07:05:33;;;;;;;28.73;5.20;;;;;;;;;;4993894;28;20500;-90
2023/05/10 07:07:59;;;;;;;22.83;5.25;;;;;;;;;;4997036;28;20033;-95
2023/05/10 07:10:24;;;;;;;28.52;5.43;;;;;;;;;;4982408;28;20088;-95
2023/05/10 07:12:49;;;;;;;27.15;5.90;;;;;;;;;;4980611;28;20473;-96
2023/05/10 07:15:15;;;;;;;25.90;4.68;;;;;;;;;;4984803;28;20068;-95
2023/05/10 07:17:41;;;;;;;23.23;4.47;;;;;;;;;;4981550;28;20026;-94
2023/05/10 07:20:06;;;;;;;22.55;4.15;;;;;;;;;;4996827;28;19998;-94
2023/05/10 07:22:31;;;;;;;22.23;4.85;;;;;;;;;;4995433;23;20426;-96
2023/05/10 07:24:57;;;;;;;21.63;4.40;;;;;;;;;;4981603;28;20030;-96
2023/05/10 07:27:22;;;;;;;27.40;5.33;;;;;;;;;;4981660;28;20033;-96
2023/05/10 07:29:47;;;;;;;27.15;6.05;;;;;;;;;;4960880;28;20348;-95
2023/05/10 07:32:12;;;;;;;24.95;5.07;;;;;;;;;;4960334;28;20074;-95
2023/05/10 07:34:38;;;;;;;20.30;4.40;;;;;;;;;;4960009;28;20466;-95
2023/05/10 07:37:03;;;;;;;24.13;5.07;;;;;;;;;;4960452;28;20109;-96
2023/05/10 07:39:28;;;;;;;12.85;3.25;;;;;;;;;;4960166;28;20271;-96
2023/05/10 07:41:54;;;;;;;18.47;5.00;;;;;;;;;;4962004;28;20038;-96
2023/05/10 07:44:20;;;;;;;21.33;4.93;;;;;;;;;;4960387;28;20257;-95
2023/05/10 07:46:45;;;;;;;23.92;4.70;;;;;;;;;;4962172;28;20054;-94
2023/05/10 07:49:10;;;;;;;17.10;4.28;;;;;;;;;;4960103;28;20377;-96
2023/05/10 07:51:36;;;;;;;23.37;4.67;;;;;;;;;;4960368;28;20516;-96
2023/05/10 07:54:02;;;;;;;18.38;4.90;;;;;;;;;;4961323;28;20264;-95
2023/05/10 07:56:32;;;;;;;23.02;4.78;;;;;;;;;;4960770;28;20133;-96
2023/05/10 07:58:57;;;;;;;21.45;3.67;;;;;;;;;;4960430;28;20101;-95
2023/05/10 08:01:23;;;;;;;17.83;3.63;;;;;;;;;;4960919;28;20438;-95
2023/05/10 08:03:48;;;;;;;23.27;4.05;;;;;;;;;;4961797;28;20119;-95
2023/05/10 08:06:15;;;;;;;20.20;3.97;;;;;;;;;;4973910;28;20090;-96
2023/05/10 08:08:40;;;;;;;20.58;4.35;;;;;;;;;;4958002;28;20401;-94
2023/05/10 08:11:05;;;;;;;20.75;4.00;;;;;;;;;;4956355;28;20026;-95
2023/05/10 08:13:31;;;;;;;19.00;3.93;;;;;;;;;;4978651;28;20025;-95
2023/05/10 08:15:56;;;;;;;21.65;4.72;;;;;;;;;;4965895;28;20241;-95
2023/05/10 08:18:21;;;;;;;18.23;4.00;;;;;;;;;;4980169;28;20022;-95
2023/05/10 08:20:46;;;;;;;27.63;5.33;;;;;;;;;;4978808;28;20374;-93
2023/05/10 08:23:12;;;;;;;23.50;4.70;;;;;;;;;;4972870;28;20284;-96
2023/05/10 08:25:37;;;;;;;25.17;5.05;;;;;;;;;;4963491;28;20286;-95
2023/05/10 08:28:03;;;;;;;20.27;5.57;;;;;;;;;;4958982;28;20022;-93
2023/05/10 08:30:28;;;;;;;31.58;7.03;;;;;;;;;;4959242;28;20043;-95
2023/05/10 08:32:53;;;;;;;25.40;6.38;;;;;;;;;;4962351;28;20026;-96
2023/05/10 08:37:54;;;;;;;19.45;5.07;;;;;;;;;;5293669;23;20058;-96
2023/05/10 08:40:20;;;;;;;17.58;4.68;;;;;;;;;;5000542;28;20020;-94
2023/05/10 08:42:51;;;;;;;18.83;4.93;;;;;;;;;;5000701;28;20028;-96
2023/05/10 08:55:42;;;;;;;19.90;4.40;;;;;;;;;;5154174;23;20049;-96
2023/05/10 08:58:08;;;;;;;18.58;4.82;;;;;;;;;;4997957;28;20026;-96
2023/05/10 09:00:36;;;;;;;21.42;5.10;;;;;;;;;;5010168;28;20033;-95
2023/05/10 09:03:02;;;;;;;22.92;6.53;;;;;;;;;;4982645;28;20030;-96
2023/05/10 09:05:28;;;;;;;18.38;5.90;;;;;;;;;;4992757;28;20033;-96
2023/05/10 09:07:53;;;;;;;27.80;6.68;;;;;;;;;;4999888;28;20184;-96
2023/05/10 09:10:25;;;;;;;24.02;6.65;;;;;;;;;;4998011;28;20022;-96
2023/05/10 09:12:52;;;;;;;31.73;6.13;;;;;;;;;;4992210;28;20045;-96
2023/05/10 09:22:54;;;;;;;29.83;7.50;;;;;;;;;;5187545;23;20084;-96
2023/05/10 09:25:19;;;;;;;21.17;5.53;;;;;;;;;;5001982;28;20054;-95
2023/05/10 09:27:46;;;;;;;20.90;5.82;;;;;;;;;;5005133;28;20026;-96
2023/05/10 09:30:16;;;;;;;15.98;4.18;;;;;;;;;;5006377;28;20022;-94
2023/05/10 09:32:45;;;;;;;20.77;5.40;;;;;;;;;;4982326;28;20121;-96
2023/05/10 09:35:11;;;;;;;23.88;5.78;;;;;;;;;;4993099;28;20013;-96
2023/05/10 09:37:38;;;;;;;21.42;6.60;;;;;;;;;;5022760;28;20021;-96
2023/05/10 09:40:07;;;;;;;25.63;6.22;;;;;;;;;;4988194;28;20038;-96
2023/05/10 09:42:34;;;;;;;19.92;5.57;;;;;;;;;;5016461;28;20025;-96
2023/05/10 09:45:03;;;;;;;14.63;4.63;;;;;;;;;;4995467;28;20026;-96
2023/05/10 09:50:05;;;;;;;20.48;4.68;;;;;;;;;;5251499;23;20073;-96
2023/05/10 09:52:33;;;;;;;14.88;3.80;;;;;;;;;;4988081;28;20040;-95
2023/05/10 09:54:59;;;;;;;21.75;3.80;;;;;;;;;;5008121;28;20018;-96
2023/05/10 09:57:25;;;;;;;18.25;5.10;;;;;;;;;;5002463;28;20049;-96
2023/05/10 09:59:51;;;;;;;27.13;4.78;;;;;;;;;;4978424;28;20022;-96
2023/05/10 10:02:19;;;;;;;21.02;4.40;;;;;;;;;;4988650;28;20025;-95
2023/05/10 10:04:48;;;;;;;16.42;3.42;;;;;;;;;;4982377;28;20030;-94
2023/05/10 10:07:14;;;;;;;21.25;3.97;;;;;;;;;;4985536;28;20113;-94
2023/05/10 10:09:39;;;;;;;20.73;3.60;;;;;;;;;;4985476;28;20054;-93
2023/05/10 10:12:05;;;;;;;23.35;4.38;;;;;;;;;;4987062;28;20242;-94
2023/05/10 10:14:30;;;;;;;19.20;4.32;;;;;;;;;;4984501;28;20037;-95
2023/05/10 10:16:56;;;;;;;20.58;4.45;;;;;;;;;;4996836;28;20026;-95
2023/05/10 10:19:21;;;;;;;30.75;3.88;;;;;;;;;;4976861;28;20029;-93
2023/05/10 10:21:50;;;;;;;20.02;5.05;;;;;;;;;;4995264;28;20015;-94
2023/05/10 10:24:16;;;;;;;17.98;4.00;;;;;;;;;;4987611;28;20026;-95
2023/05/10 10:26:42;;;;;;;19.08;2.47;;;;;;;;;;4996525;28;20026;-93
2023/05/10 10:29:17;;;;;;;18.95;3.53;;;;;;;;;;5001483;28;20061;-94
2023/05/10 10:32:14;;;;;;;16.40;3.33;;;;;;;;;;4994989;28;20041;-94
2023/05/10 10:34:40;;;;;;;16.25;2.88;;;;;;;;;;4928084;28;20038;-94
2023/05/10 10:37:06;;;;;;;11.52;2.50;;;;;;;;;;4982706;28;20105;-93
2023/05/10 10:39:31;;;;;;;15.30;2.72;;;;;;;;;;4981591;28;20041;-94
2023/05/10 10:41:57;;;;;;;16.15;3.28;;;;;;;;;;4980610;28;20022;-94
2023/05/10 10:44:24;;;;;;;12.60;2.38;;;;;;;;;;4980015;28;20031;-95
2023/05/10 10:47:09;;;;;;;13.25;2.50;;;;;;;;;;4998769;28;20022;-95
2023/05/10 10:49:43;;;;;;;19.60;3.55;;;;;;;;;;4981110;28;20073;-95
2023/05/10 10:52:28;;;;;;;14.50;2.47;;;;;;;;;;4980358;28;20035;-96
2023/05/10 10:54:58;;;;;;;12.20;2.58;;;;;;;;;;4980301;28;20030;-95
2023/05/10 10:57:26;;;;;;;13.85;2.38;;;;;;;;;;4981164;28;20408;-96
2023/05/10 10:59:51;;;;;;;13.88;2.67;;;;;;;;;;4978645;28;20131;-96
2023/05/10 11:02:36;;;;;;;14.10;3.38;;;;;;;;;;4979643;28;20053;-96
2023/05/10 11:05:21;;;;;;;10.50;2.30;;;;;;;;;;4978131;28;20027;-95
2023/05/10 11:07:54;;;;;;;13.95;2.72;;;;;;;;;;4978886;28;20053;-95
2023/05/10 11:10:20;;;;;;;11.90;2.22;;;;;;;;;;4979454;28;20426;-95
2023/05/10 11:12:52;;;;;;;16.70;2.95;;;;;;;;;;4978431;28;20034;-95
2023/05/10 11:15:17;;;;;;;17.40;3.20;;;;;;;;;;4977554;28;20026;-94
2023/05/10 11:17:43;;;;;;;21.00;3.22;;;;;;;;;;4978485;28;20485;-95
2023/05/10 11:20:09;;;;;;;12.52;2.55;;;;;;;;;;4995817;28;20014;-96
2023/05/10 11:22:53;;;;;;;20.50;3.42;;;;;;;;;;4979406;28;20564;-96
2023/05/10 11:25:19;;;;;;;15.80;3.13;;;;;;;;;;4978968;28;20026;-95
2023/05/10 11:27:44;;;;;;;23.13;4.07;;;;;;;;;;4979104;28;20412;-94
2023/05/10 11:30:11;;;;;;;14.88;2.80;;;;;;;;;;4977945;28;20022;-94
2023/05/10 11:32:37;;;;;;;17.27;3.10;;;;;;;;;;4977336;28;20030;-93
2023/05/10 11:35:10;;;;;;;17.77;2.97;;;;;;;;;;4977505;28;20018;-95
2023/05/10 11:37:35;;;;;;;13.77;2.67;;;;;;;;;;4981804;28;20030;-96
2023/05/10 11:40:02;;;;;;;14.70;3.30;;;;;;;;;;4992156;28;20025;-96
2023/05/10 11:42:27;;;;;;;15.57;3.95;;;;;;;;;;4986022;28;20022;-96
2023/05/10 11:44:53;;;;;;;17.73;2.35;;;;;;;;;;4993632;28;20554;-96
2023/05/10 11:47:39;;;;;;;20.15;2.78;;;;;;;;;;5003297;28;20027;-95
2023/05/10 11:50:05;;;;;;;12.23;2.50;;;;;;;;;;4977824;28;20034;-94
2023/05/10 11:52:35;;;;;;;12.35;2.45;;;;;;;;;;4981401;28;20435;-96
2023/05/10 11:55:00;;;;;;;16.65;2.83;;;;;;;;;;4986103;28;20082;-96
2023/05/10 11:57:26;;;;;;;13.88;2.28;;;;;;;;;;4991237;28;20049;-96
2023/05/10 11:59:56;;;;;;;11.15;1.98;;;;;;;;;;4980394;28;20038;-95
2023/05/10 12:02:22;;;;;;;9.00;1.90;;;;;;;;;;4980973;28;20014;-96
2023/05/10 12:04:47;;;;;;;17.50;2.47;;;;;;;;;;4979809;28;20026;-96
2023/05/10 12:07:13;;;;;;;9.38;1.80;;;;;;;;;;4981452;28;20020;-96
2023/05/10 12:09:42;;;;;;;12.35;2.20;;;;;;;;;;4964565;28;20164;-96
2023/05/10 12:12:08;;;;;;;10.70;2.05;;;;;;;;;;5002322;28;20476;-96
2023/05/10 12:14:36;;;;;;;17.08;3.28;;;;;;;;;;4999825;28;20022;-96
2023/05/10 12:17:01;;;;;;;11.50;2.00;;;;;;;;;;4979092;28;20026;-96
2023/05/10 12:19:27;;;;;;;8.20;2.17;;;;;;;;;;4990089;28;20053;-96
2023/05/10 12:21:52;;;;;;;7.80;1.67;;;;;;;;;;4992483;28;20283;-96
2023/05/10 12:24:19;;;;;;;7.82;2.08;;;;;;;;;;4986788;28;20018;-96
2023/05/10 12:29:20;;;;;;;10.15;2.10;;;;;;;;;;5394816;23;20064;-95
2023/05/10 12:32:00;;;;;;;8.10;2.33;;;;;;;;;;4998370;28;20076;-94
2023/05/10 12:34:26;;;;;;;13.93;1.55;;;;;;;;;;5000319;28;20018;-95
2023/05/10 12:47:30;;;;;;;8.57;1.70;;;;;;;;;;5044999;28;20095;-96
2023/05/10 12:49:55;;;;;;;9.02;1.38;;;;;;;;;;5035986;28;20025;-96
2023/05/10 12:57:32;;;;;;;10.80;1.92;;;;;;;;;;5503980;23;20938;-96
2023/05/10 12:59:57;;;;;;;11.23;1.98;;;;;;;;;;4961513;28;20053;-95
2023/05/10 13:02:23;;;;;;;6.75;2.38;;;;;;;;;;4953078;28;20045;-95
2023/05/10 13:04:48;;;;;;;6.80;1.35;;;;;;;;;;4961130;28;20482;-95
2023/05/10 13:07:13;;;;;;;4.28;0.65;;;;;;;;;;4960519;28;20105;-96
2023/05/10 13:09:39;;;;;;;5.00;0.80;;;;;;;;;;4963052;28;20027;-95
2023/05/10 13:12:05;;;;;;;5.50;1.10;;;;;;;;;;4963302;28;20041;-96
2023/05/10 13:14:33;;;;;;;2.92;0.50;;;;;;;;;;5097199;23;20046;-96
2023/05/10 13:16:59;;;;;;;3.78;0.73;;;;;;;;;;4997767;28;20022;-94
2023/05/10 13:19:26;;;;;;;5.35;0.68;;;;;;;;;;4981232;28;20377;-93
2023/05/10 13:21:51;;;;;;;2.08;0.40;;;;;;;;;;4993516;28;20015;-94
2023/05/10 13:24:17;;;;;;;4.35;0.90;;;;;;;;;;4979226;28;20456;-95
2023/05/10 13:26:45;;;;;;;3.50;0.73;;;;;;;;;;4976635;28;20075;-96
2023/05/10 13:29:10;;;;;;;3.35;0.65;;;;;;;;;;4977167;28;20014;-96
2023/05/10 13:31:35;;;;;;;9.38;1.75;;;;;;;;;;4974748;28;20030;-94
2023/05/10 13:34:01;;;;;;;5.18;0.80;;;;;;;;;;4979953;28;20141;-94
2023/05/10 13:36:26;;;;;;;6.18;0.82;;;;;;;;;;4990738;28;20157;-94
2023/05/10 13:38:51;;;;;;;2.90;0.47;;;;;;;;;;4957472;28;20109;-95
2023/05/10 13:41:17;;;;;;;8.00;1.02;;;;;;;;;;4974352;28;20457;-94
2023/05/10 13:43:42;;;;;;;4.25;1.02;;;;;;;;;;4976534;28;20053;-94
2023/05/10 13:46:07;;;;;;;4.85;1.08;;;;;;;;;;4979598;28;20082;-94
2023/05/10 13:48:33;;;;;;;4.82;1.80;;;;;;;;;;4993402;28;20026;-95
2023/05/10 13:50:58;;;;;;;9.23;2.90;;;;;;;;;;4993087;28;20030;-96
2023/05/10 13:53:23;;;;;;;3.55;1.30;;;;;;;;;;4977414;28;20292;-94
2023/05/10 13:55:49;;;;;;;2.38;1.17;;;;;;;;;;4978677;28;20053;-95
2023/05/10 13:58:14;;;;;;;6.78;0.70;;;;;;;;;;4980906;28;20128;-94
2023/05/10 14:00:40;;;;;;;2.97;0.87;;;;;;;;;;4973060;28;20022;-94
2023/05/10 14:03:06;;;;;;;3.47;0.57;;;;;;;;;;4976253;28;20267;-95
2023/05/10 14:05:31;;;;;;;9.07;0.80;;;;;;;;;;4974224;28;20512;-94
2023/05/10 14:07:57;;;;;;;3.08;0.57;;;;;;;;;;4991725;28;20102;-93
2023/05/10 14:10:22;;;;;;;1.73;0.30;;;;;;;;;;4991886;28;20489;-92
2023/05/10 14:12:47;;;;;;;0.93;0.23;;;;;;;;;;4974318;28;20023;-92
2023/05/10 14:15:12;;;;;;;1.38;0.32;;;;;;;;;;4951766;28;1151411;-91
2023/05/10 14:17:38;;;;;;;3.90;0.60;;;;;;;;;;5008937;28;20018;-93
2023/05/10 14:20:03;;;;;;;3.53;0.40;;;;;;;;;;4991902;28;20030;-93
2023/05/10 14:22:29;;;;;;;2.42;0.40;;;;;;;;;;4992684;28;20491;-96
2023/05/10 14:24:54;;;;;;;6.30;0.80;;;;;;;;;;4976006;28;20034;-94
2023/05/10 14:27:19;;;;;;;4.90;1.05;;;;;;;;;;4974908;28;20083;-93
2023/05/10 14:29:44;;;;;;;4.77;0.67;;;;;;;;;;4973356;28;20023;-96
2023/05/10 14:32:10;;;;;;;2.60;0.70;;;;;;;;;;4973961;28;20778;-95
2023/05/10 14:34:35;;;;;;;3.10;0.98;;;;;;;;;;4973879;28;20023;-93
2023/05/10 14:37:01;;;;;;;2.95;0.40;;;;;;;;;;4992483;28;20030;-96
2023/05/10 14:39:29;;;;;;;1.42;0.30;;;;;;;;;;4976510;28;20022;-94
2023/05/10 14:41:54;;;;;;;0.93;0.22;;;;;;;;;;4994680;28;20085;-92
2023/05/10 14:44:19;;;;;;;1.40;0.20;;;;;;;;;;4991241;28;20026;-93
2023/05/10 14:46:45;;;;;;;1.35;0.40;;;;;;;;;;4992454;28;20272;-93
2023/05/10 14:49:10;;;;;;;3.63;0.65;;;;;;;;;;4974756;28;20014;-91
2023/05/10 14:51:36;;;;;;;4.03;0.40;;;;;;;;;;4975364;28;20515;-93
2023/05/10 14:54:02;;;;;;;3.45;0.60;;;;;;;;;;4981128;28;20252;-95
2023/05/10 14:56:27;;;;;;;4.60;1.00;;;;;;;;;;4987522;28;20439;-94
2023/05/10 14:58:53;;;;;;;2.92;0.40;;;;;;;;;;4997556;28;20073;-94
2023/05/10 15:01:18;;;;;;;3.10;0.40;;;;;;;;;;4977593;28;20027;-95
2023/05/10 15:03:51;;;;;;;3.70;0.52;;;;;;;;;;4977848;28;20019;-96